Aviation Digital Data Service (ADDS)

Output produced by METARs form (1502 UTC 30 July 2016)
found at http://aviationweather.gov/adds/metars/
 
KPHF 301409Z 3014/3112 13006KT P6SM SCT035 
     FM301700 13007KT P6SM BKN050 
     FM310000 14004KT P6SM SCT050 BKN100